createdAt,value
2022-09-13T00:00:40.166Z,16.61
2022-09-13T00:03:07.236Z,16.63
2022-09-13T00:05:35.324Z,16.65
2022-09-13T00:08:02.085Z,16.66
2022-09-13T00:10:29.032Z,16.66
2022-09-13T00:12:55.511Z,16.67
2022-09-13T00:15:22.078Z,16.66
2022-09-13T00:17:48.649Z,16.68
2022-09-13T00:20:15.070Z,16.69
2022-09-13T00:22:41.510Z,16.70
2022-09-13T00:25:08.327Z,16.70
2022-09-13T00:27:36.349Z,16.72
2022-09-13T00:30:07.937Z,16.75
2022-09-13T00:32:35.566Z,16.78
2022-09-13T00:35:03.624Z,16.76
2022-09-13T00:37:31.220Z,16.77
2022-09-13T00:39:57.630Z,16.75
2022-09-13T00:42:29.769Z,16.76
2022-09-13T00:45:10.706Z,16.79
2022-09-13T00:47:41.723Z,16.79
2022-09-13T00:50:17.433Z,16.79
2022-09-13T00:52:48.290Z,16.74
2022-09-13T00:55:50.037Z,16.74
2022-09-13T00:58:27.032Z,16.76
2022-09-13T01:00:55.978Z,16.77
2022-09-13T01:03:26.211Z,16.78
2022-09-13T01:05:59.063Z,16.79
2022-09-13T01:08:29.323Z,16.77
2022-09-13T01:10:59.941Z,16.78
2022-09-13T01:13:31.928Z,16.79
2022-09-13T01:15:59.746Z,16.81
2022-09-13T01:18:26.882Z,16.79
2022-09-13T01:21:30.276Z,16.78
2022-09-13T01:24:15.320Z,16.75
2022-09-13T01:27:03.553Z,16.76
2022-09-13T01:30:03.890Z,16.74
2022-09-13T01:32:33.246Z,16.75
2022-09-13T01:35:06.083Z,16.72
2022-09-13T01:37:54.348Z,16.72
2022-09-13T01:40:33.695Z,16.73
2022-09-13T01:43:11.863Z,16.74
2022-09-13T01:46:05.470Z,16.72
2022-09-13T01:48:56.096Z,16.67
2022-09-13T01:51:49.322Z,16.68
2022-09-13T01:54:20.057Z,16.66
2022-09-13T01:57:11.869Z,16.65
2022-09-13T01:59:44.396Z,16.69
2022-09-13T02:02:16.570Z,16.67
2022-09-13T02:04:59.114Z,16.67
2022-09-13T02:07:35.820Z,16.66
2022-09-13T02:10:22.837Z,16.66
2022-09-13T02:12:53.138Z,16.63
2022-09-13T02:15:44.911Z,16.63
2022-09-13T02:18:29.818Z,16.65
2022-09-13T02:21:01.923Z,16.65
2022-09-13T02:23:41.055Z,16.66
2022-09-13T02:26:12.391Z,16.67
2022-09-13T02:28:45.529Z,16.69
2022-09-13T02:31:14.584Z,16.69
2022-09-13T02:33:49.853Z,16.67
2022-09-13T02:36:31.242Z,16.61
2022-09-13T02:39:02.439Z,16.65
2022-09-13T02:41:39.495Z,16.69
2022-09-13T02:44:39.469Z,16.67
2022-09-13T02:47:32.530Z,16.66
2022-09-13T02:50:22.653Z,16.67
2022-09-13T02:53:01.712Z,16.68
2022-09-13T02:55:59.790Z,16.65
2022-09-13T02:58:35.654Z,16.65
2022-09-13T03:01:02.202Z,16.66
2022-09-13T03:03:28.984Z,16.69
2022-09-13T03:05:55.449Z,16.68
2022-09-13T03:08:23.709Z,16.69
2022-09-13T03:11:08.389Z,16.70
2022-09-13T03:13:41.316Z,16.70
2022-09-13T03:16:29.093Z,16.70
2022-09-13T03:19:13.301Z,16.66
2022-09-13T03:21:55.431Z,16.69
2022-09-13T03:24:50.433Z,16.71
2022-09-13T03:27:40.439Z,16.67
2022-09-13T03:30:14.222Z,16.66
2022-09-13T03:32:43.719Z,16.60
2022-09-13T03:35:17.545Z,16.60
2022-09-13T03:37:46.291Z,16.60
2022-09-13T03:40:16.611Z,16.56
2022-09-13T03:42:48.972Z,16.57
2022-09-13T03:45:19.272Z,16.56
2022-09-13T03:47:48.416Z,16.54
2022-09-13T03:50:20.761Z,16.51
2022-09-13T03:52:51.068Z,16.52
2022-09-13T03:55:21.827Z,16.52
2022-09-13T03:57:48.329Z,16.47
2022-09-13T04:00:15.250Z,16.47
2022-09-13T04:02:41.787Z,16.49
2022-09-13T04:05:08.293Z,16.46
2022-09-13T04:07:34.712Z,16.47
2022-09-13T04:10:01.319Z,16.44
2022-09-13T04:12:30.916Z,16.43
2022-09-13T04:14:57.753Z,16.45
2022-09-13T04:17:24.216Z,16.46
2022-09-13T04:19:50.624Z,16.48
2022-09-13T04:22:17.109Z,16.48
2022-09-13T04:24:44.242Z,16.44
2022-09-13T04:27:10.651Z,16.35
2022-09-13T04:29:37.081Z,16.36
2022-09-13T04:32:03.891Z,16.36
2022-09-13T04:34:30.293Z,16.37
2022-09-13T04:36:57.097Z,16.42
2022-09-13T04:39:26.444Z,16.45
2022-09-13T04:41:54.798Z,16.45
2022-09-13T04:44:21.871Z,16.43
2022-09-13T04:46:48.971Z,16.40
2022-09-13T04:49:17.001Z,16.35
2022-09-13T04:51:43.866Z,16.34
2022-09-13T04:54:15.302Z,16.37
2022-09-13T04:56:42.528Z,16.39
2022-09-13T04:59:10.689Z,16.36
2022-09-13T05:01:37.448Z,16.32
2022-09-13T05:04:04.514Z,16.34
2022-09-13T05:06:30.940Z,16.33
2022-09-13T05:08:57.719Z,16.33
2022-09-13T05:11:26.847Z,16.34
2022-09-13T05:13:55.339Z,16.37
2022-09-13T05:16:27.873Z,16.31
2022-09-13T05:18:55.595Z,16.31
2022-09-13T05:21:22.034Z,16.31
2022-09-13T05:23:49.801Z,16.32
2022-09-13T05:26:16.838Z,16.34
2022-09-13T05:28:43.454Z,16.34
2022-09-13T05:31:34.656Z,16.32
2022-09-13T05:34:05.076Z,16.27
2022-09-13T05:36:31.771Z,16.25
2022-09-13T05:39:26.003Z,16.28
2022-09-13T05:41:46.056Z,16.29
2022-09-13T05:44:13.721Z,16.32
2022-09-13T05:46:41.588Z,16.31
2022-09-13T05:49:08.163Z,16.29
2022-09-13T05:51:34.606Z,16.31
2022-09-13T05:54:01.044Z,16.29
2022-09-13T05:56:29.930Z,16.31
2022-09-13T05:58:56.572Z,16.35
2022-09-13T06:01:26.109Z,16.35
2022-09-13T06:03:55.935Z,16.38
2022-09-13T06:06:23.447Z,16.40
2022-09-13T06:08:54.700Z,16.43
2022-09-13T06:11:21.534Z,16.43
2022-09-13T06:13:47.961Z,16.43
2022-09-13T06:16:16.610Z,16.44
2022-09-13T06:18:43.856Z,16.45
2022-09-13T06:21:24.677Z,16.46
2022-09-13T06:23:54.507Z,16.46
2022-09-13T06:26:23.821Z,16.49
2022-09-13T06:28:52.515Z,16.53
2022-09-13T06:31:21.484Z,16.55
2022-09-13T06:33:48.194Z,16.56
2022-09-13T06:36:20.086Z,16.57
2022-09-13T06:38:48.951Z,16.61
2022-09-13T06:41:21.992Z,16.63
2022-09-13T06:43:53.412Z,16.62
2022-09-13T06:46:25.149Z,16.64
2022-09-13T06:48:52.740Z,16.63
2022-09-13T06:51:23.110Z,16.67
2022-09-13T06:53:51.684Z,16.71
2022-09-13T06:56:20.358Z,16.73
2022-09-13T06:58:49.313Z,16.72
2022-09-13T07:01:20.579Z,16.71
2022-09-13T07:03:52.774Z,16.72
2022-09-13T07:06:24.945Z,16.74
2022-09-13T07:08:52.607Z,16.74
2022-09-13T07:11:21.541Z,16.75
2022-09-13T07:13:52.527Z,16.76
2022-09-13T07:16:20.817Z,16.78
2022-09-13T07:18:59.109Z,16.79
2022-09-13T07:21:26.992Z,16.83
2022-09-13T07:23:55.285Z,16.85
2022-09-13T07:26:21.978Z,16.86
2022-09-13T07:28:52.150Z,16.86
2022-09-13T07:31:21.466Z,16.87
2022-09-13T07:33:53.162Z,16.89
2022-09-13T07:36:19.844Z,16.92
2022-09-13T07:38:46.308Z,16.93
2022-09-13T07:41:20.613Z,16.94
2022-09-13T07:43:47.709Z,16.96
2022-09-13T07:46:17.833Z,16.98
2022-09-13T07:48:46.033Z,17.02
2022-09-13T07:51:20.856Z,17.06
2022-09-13T07:53:52.627Z,17.06
2022-09-13T07:56:26.109Z,17.09
2022-09-13T07:58:55.079Z,17.12
2022-09-13T08:01:27.324Z,17.13
2022-09-13T08:03:59.409Z,17.17
2022-09-13T08:06:27.783Z,17.20
2022-09-13T08:08:54.941Z,17.19
2022-09-13T08:11:34.103Z,17.18
2022-09-13T08:14:01.500Z,17.19
2022-09-13T08:16:30.632Z,17.19
2022-09-13T08:18:59.890Z,17.21
2022-09-13T08:21:27.099Z,17.21
2022-09-13T08:23:59.706Z,17.21
2022-09-13T08:26:27.956Z,17.24
2022-09-13T08:28:59.819Z,17.27
2022-09-13T08:31:27.175Z,17.28
2022-09-13T08:33:53.784Z,17.29
2022-09-13T08:36:23.779Z,17.31
2022-09-13T08:38:54.134Z,17.32
2022-09-13T08:41:44.363Z,17.35
2022-09-13T08:44:31.077Z,17.38
2022-09-13T08:47:35.324Z,17.44
2022-09-13T08:50:20.807Z,17.45
2022-09-13T08:53:17.894Z,17.48
2022-09-13T08:56:10.481Z,17.51
2022-09-13T08:59:00.006Z,17.53
2022-09-13T09:01:48.418Z,17.52
2022-09-13T09:04:27.379Z,17.55
2022-09-13T09:07:13.769Z,17.63
2022-09-13T09:09:53.182Z,17.65
2022-09-13T09:12:53.157Z,17.67
2022-09-13T09:15:33.677Z,17.75
2022-09-13T09:18:10.531Z,17.76
2022-09-13T09:20:39.230Z,17.75
2022-09-13T09:23:19.103Z,17.76
2022-09-13T09:25:50.777Z,17.79
2022-09-13T09:28:19.027Z,17.80
2022-09-13T09:31:40.994Z,17.82
2022-09-13T09:34:10.492Z,17.87
2022-09-13T09:36:44.768Z,17.94
2022-09-13T09:39:14.098Z,18.19
2022-09-13T09:41:40.673Z,18.21
2022-09-13T09:44:20.511Z,18.20
2022-09-13T09:47:19.127Z,18.22
2022-09-13T09:50:07.221Z,18.33
2022-09-13T09:52:44.601Z,18.57
2022-09-13T09:55:21.145Z,18.60
2022-09-13T09:58:02.398Z,18.58
2022-09-13T10:00:33.054Z,18.52
2022-09-13T10:03:03.524Z,18.48
2022-09-13T10:05:32.395Z,18.43
2022-09-13T10:08:05.267Z,18.42
2022-09-13T10:10:36.708Z,18.47
2022-09-13T10:13:07.618Z,18.53
2022-09-13T10:15:35.768Z,18.54
2022-09-13T10:18:42.332Z,18.60
2022-09-13T10:21:23.679Z,18.80
2022-09-13T10:23:51.008Z,19.07
2022-09-13T10:26:20.802Z,19.29
2022-09-13T10:29:06.961Z,19.26
2022-09-13T10:31:42.929Z,19.38
2022-09-13T10:34:22.444Z,19.62
2022-09-13T10:36:57.497Z,19.83
2022-09-13T10:39:26.163Z,19.86
2022-09-13T10:42:11.065Z,20.13
2022-09-13T10:44:45.108Z,20.25
2022-09-13T10:47:18.891Z,20.09
2022-09-13T10:49:53.147Z,19.90
2022-09-13T10:52:35.948Z,19.72
2022-09-13T10:55:23.911Z,19.69
2022-09-13T10:57:52.305Z,19.80
2022-09-13T11:00:20.261Z,19.77
2022-09-13T11:02:58.858Z,19.70
2022-09-13T11:05:31.828Z,19.75
2022-09-13T11:08:32.053Z,19.88
2022-09-13T11:11:10.815Z,19.87
2022-09-13T11:14:00.734Z,19.95
2022-09-13T11:16:48.648Z,20.53
2022-09-13T11:19:51.350Z,20.36
2022-09-13T11:22:44.448Z,20.17
2022-09-13T11:25:39.164Z,20.28
2022-09-13T11:28:14.897Z,20.21
2022-09-13T11:31:10.285Z,20.24
2022-09-13T11:33:45.977Z,20.59
2022-09-13T11:36:38.302Z,20.81
2022-09-13T11:39:10.031Z,20.94
2022-09-13T11:41:49.268Z,20.81
2022-09-13T11:44:40.779Z,20.78
2022-09-13T11:47:22.914Z,20.59
2022-09-13T11:50:09.940Z,20.41
2022-09-13T11:53:10.716Z,20.55
2022-09-13T11:55:42.589Z,20.69
2022-09-13T11:58:16.307Z,20.57
2022-09-13T12:00:58.506Z,20.47
2022-09-13T12:03:31.235Z,20.54
2022-09-13T12:06:02.939Z,20.53
2022-09-13T12:08:33.116Z,20.46
2022-09-13T12:11:03.735Z,20.91
2022-09-13T12:13:43.795Z,20.98
2022-09-13T12:16:15.071Z,20.92
2022-09-13T12:18:48.624Z,20.89
2022-09-13T12:21:20.936Z,20.93
2022-09-13T12:23:58.268Z,20.95
2022-09-13T12:26:41.136Z,21.01
2022-09-13T12:29:32.211Z,21.11
2022-09-13T12:32:02.362Z,21.40
2022-09-13T12:34:42.140Z,21.51
2022-09-13T12:37:27.440Z,21.76
2022-09-13T12:40:16.052Z,21.90
2022-09-13T12:43:14.555Z,21.99
2022-09-13T12:46:04.045Z,22.20
2022-09-13T12:48:39.705Z,22.12
2022-09-13T12:51:40.143Z,22.28
2022-09-13T12:54:33.878Z,22.75
2022-09-13T12:57:31.260Z,23.05
2022-09-13T13:00:13.022Z,23.22
2022-09-13T13:02:42.730Z,23.28
2022-09-13T13:05:31.841Z,23.19
2022-09-13T13:08:06.487Z,23.21
2022-09-13T13:10:38.674Z,23.32
2022-09-13T13:13:21.010Z,23.31
2022-09-13T13:15:50.111Z,23.34
2022-09-13T13:18:37.124Z,23.46
2022-09-13T13:21:22.219Z,23.49
2022-09-13T13:23:48.911Z,23.56
2022-09-13T13:26:21.490Z,23.53
2022-09-13T13:28:52.054Z,23.40
2022-09-13T13:31:24.915Z,23.35
2022-09-13T13:34:03.381Z,23.30
2022-09-13T13:36:29.926Z,23.14
2022-09-13T13:38:56.896Z,23.10
2022-09-13T13:41:36.626Z,23.21
2022-09-13T13:44:22.936Z,23.12
2022-09-13T13:47:15.320Z,22.95
2022-09-13T13:49:46.057Z,22.90
2022-09-13T13:52:14.094Z,22.84
2022-09-13T13:54:40.473Z,22.66
2022-09-13T13:57:22.209Z,22.66
2022-09-13T14:00:04.365Z,22.54
2022-09-13T14:02:42.813Z,22.45
2022-09-13T14:05:50.103Z,22.40
2022-09-13T14:08:38.127Z,22.30
2022-09-13T14:11:26.119Z,22.38
2022-09-13T14:13:52.497Z,22.34
2022-09-13T14:16:36.724Z,22.43
2022-09-13T14:19:17.497Z,22.70
2022-09-13T14:21:44.937Z,22.85
2022-09-13T14:24:22.737Z,22.67
2022-09-13T14:26:57.999Z,22.48
2022-09-13T14:29:26.258Z,22.28
2022-09-13T14:31:55.327Z,22.13
2022-09-13T14:34:24.949Z,22.13
2022-09-13T14:36:56.552Z,22.22
2022-09-13T14:39:23.877Z,22.15
2022-09-13T14:42:00.297Z,22.29
2022-09-13T14:44:29.149Z,22.41
2022-09-13T14:47:04.384Z,22.56
2022-09-13T14:49:39.877Z,22.58
2022-09-13T14:52:14.771Z,22.79
2022-09-13T14:54:52.667Z,22.80
2022-09-13T14:57:34.528Z,22.81
2022-09-13T15:00:16.006Z,22.79
2022-09-13T15:02:49.953Z,22.81
2022-09-13T15:05:18.932Z,22.67
2022-09-13T15:07:46.366Z,22.70
2022-09-13T15:10:12.934Z,22.63
2022-09-13T15:13:02.181Z,22.68
2022-09-13T15:15:35.391Z,22.66
2022-09-13T15:18:25.556Z,22.59
2022-09-13T15:21:05.410Z,22.68
2022-09-13T15:23:38.852Z,22.59
2022-09-13T15:26:06.459Z,22.56
2022-09-13T15:28:46.839Z,22.57
2022-09-13T15:31:26.530Z,22.64
2022-09-13T15:34:13.518Z,22.51
2022-09-13T15:36:39.935Z,22.52
2022-09-13T15:39:09.317Z,22.52
2022-09-13T15:41:37.747Z,22.40
2022-09-13T15:44:07.397Z,22.27
2022-09-13T15:46:57.598Z,22.25
2022-09-13T15:49:27.125Z,22.34
2022-09-13T15:51:59.638Z,22.28
2022-09-13T15:54:52.049Z,22.25
2022-09-13T15:57:23.211Z,22.29
2022-09-13T15:59:49.707Z,22.25
2022-09-13T16:02:28.481Z,22.11
2022-09-13T16:04:55.766Z,22.18
2022-09-13T16:07:23.912Z,22.12
2022-09-13T16:09:50.764Z,21.99
2022-09-13T16:12:18.942Z,21.90
2022-09-13T16:14:46.086Z,21.98
2022-09-13T16:17:21.151Z,21.86
2022-09-13T16:19:48.148Z,21.86
2022-09-13T16:22:15.297Z,21.88
2022-09-13T16:24:42.340Z,21.84
2022-09-13T16:27:12.195Z,21.94
2022-09-13T16:29:40.462Z,21.95
2022-09-13T16:32:07.377Z,21.86
2022-09-13T16:34:33.820Z,21.80
2022-09-13T16:37:01.017Z,21.73
2022-09-13T16:39:27.535Z,21.77
2022-09-13T16:41:54.022Z,21.76
2022-09-13T16:44:20.450Z,21.71
2022-09-13T16:46:47.039Z,21.69
2022-09-13T16:49:13.546Z,21.62
2022-09-13T16:51:39.984Z,21.53
2022-09-13T16:54:06.518Z,21.54
2022-09-13T16:56:33.118Z,21.58
2022-09-13T16:58:59.585Z,21.53
2022-09-13T17:01:28.798Z,21.53
2022-09-13T17:03:56.079Z,21.57
2022-09-13T17:06:24.407Z,21.54
2022-09-13T17:08:56.725Z,21.62
2022-09-13T17:11:25.796Z,21.55
2022-09-13T17:13:52.688Z,21.50
2022-09-13T17:16:31.027Z,21.53
2022-09-13T17:19:00.236Z,21.48
2022-09-13T17:21:27.695Z,21.46
2022-09-13T17:23:54.883Z,21.40
2022-09-13T17:26:22.451Z,21.35
2022-09-13T17:28:49.143Z,21.30
2022-09-13T17:31:16.878Z,21.28
2022-09-13T17:33:43.357Z,21.36
2022-09-13T17:36:13.497Z,21.29
2022-09-13T17:38:40.835Z,21.24
2022-09-13T17:41:13.073Z,21.15
2022-09-13T18:47:39.970Z,20.30
2022-09-13T18:50:09.114Z,20.28
2022-09-13T18:52:39.209Z,20.27
2022-09-13T18:55:06.112Z,20.28
2022-09-13T18:57:32.546Z,20.25
2022-09-13T18:59:59.452Z,20.22
2022-09-13T19:02:25.948Z,20.21
2022-09-13T19:04:52.529Z,20.18
2022-09-13T19:07:18.924Z,20.15
2022-09-13T19:09:45.373Z,20.14
2022-09-13T19:12:12.008Z,20.11
2022-09-13T19:14:38.529Z,20.13
2022-09-13T19:17:05.020Z,20.12
2022-09-13T19:19:31.959Z,20.08
2022-09-13T19:21:58.523Z,20.05
2022-09-13T19:24:25.524Z,20.07
2022-09-13T19:26:52.774Z,20.03
2022-09-13T19:29:22.879Z,20.03
2022-09-13T19:31:51.392Z,20.04
2022-09-13T19:34:20.390Z,20.00
2022-09-13T19:36:49.361Z,19.97
2022-09-13T19:39:16.237Z,19.90
2022-09-13T19:41:42.683Z,19.91
2022-09-13T19:44:12.635Z,19.91
2022-09-13T19:46:40.555Z,19.93
2022-09-13T19:49:11.843Z,19.92
2022-09-13T19:51:40.235Z,19.91
2022-09-13T19:54:09.710Z,19.90
2022-09-13T19:56:39.226Z,19.90
2022-09-13T19:59:07.894Z,19.88
2022-09-13T20:01:41.083Z,19.89
2022-09-13T20:04:14.331Z,19.86
2022-09-13T20:06:45.695Z,19.84
2022-09-13T20:09:13.907Z,19.84
2022-09-13T20:11:44.876Z,19.85
2022-09-13T20:14:12.740Z,19.84
2022-09-13T20:16:41.175Z,19.84
2022-09-13T20:19:29.509Z,19.84
2022-09-13T20:21:55.604Z,19.83
2022-09-13T20:24:22.825Z,19.80
2022-09-13T20:26:52.260Z,19.80
2022-09-13T20:29:19.640Z,19.77
2022-09-13T20:31:46.586Z,19.76
2022-09-13T20:34:15.070Z,19.74
2022-09-13T20:36:44.124Z,19.73
2022-09-13T20:39:11.065Z,19.71
2022-09-13T20:41:37.464Z,19.71
2022-09-13T20:44:03.862Z,19.69
2022-09-13T20:46:31.656Z,19.67
2022-09-13T20:48:58.392Z,19.66
2022-09-13T20:51:25.448Z,19.67
2022-09-13T20:53:57.410Z,19.66
2022-09-13T20:56:24.823Z,19.66
2022-09-13T20:58:57.247Z,19.64
2022-09-13T21:01:24.908Z,19.62
2022-09-13T21:03:53.523Z,19.59
2022-09-13T21:06:22.142Z,19.59
2022-09-13T21:08:52.177Z,19.55
2022-09-13T21:11:30.050Z,19.55
2022-09-13T21:13:59.584Z,19.55
2022-09-13T21:16:37.523Z,19.55
2022-09-13T21:19:04.577Z,19.53
2022-09-13T21:21:39.315Z,19.54
2022-09-13T21:24:09.637Z,19.52
2022-09-13T21:26:37.844Z,19.49
2022-09-13T21:29:04.243Z,19.50
2022-09-13T21:31:32.752Z,19.44
2022-09-13T21:34:01.389Z,19.42
2022-09-13T21:36:29.290Z,19.37
2022-09-13T21:38:56.348Z,19.36
2022-09-13T21:41:25.193Z,19.38
2022-09-13T21:43:51.642Z,19.41
2022-09-13T21:46:29.959Z,19.41
2022-09-13T21:48:59.465Z,19.35
2022-09-13T21:51:31.149Z,19.37
2022-09-13T21:53:59.417Z,19.42
2022-09-13T21:56:28.232Z,19.41
2022-09-13T21:59:00.398Z,19.44
2022-09-13T22:01:30.774Z,19.36
2022-09-13T22:03:58.317Z,19.34
2022-09-13T22:06:27.351Z,19.32
2022-09-13T22:08:58.093Z,19.22
2022-09-13T22:11:27.597Z,19.11
2022-09-13T22:13:55.497Z,19.08
2022-09-13T22:16:25.092Z,19.11
2022-09-13T22:18:56.942Z,19.04
2022-09-13T22:21:27.272Z,18.99
2022-09-13T22:23:54.107Z,18.98
2022-09-13T22:26:28.342Z,18.99
2022-09-13T22:28:56.628Z,19.04
2022-09-13T22:31:25.725Z,18.97
2022-09-13T22:33:54.642Z,18.85
2022-09-13T22:36:21.047Z,18.77
2022-09-13T22:38:53.046Z,18.70
2022-09-13T22:41:27.407Z,18.60
2022-09-13T22:43:54.365Z,18.58
2022-09-13T22:46:23.946Z,18.59
2022-09-13T22:48:50.895Z,18.66
2022-09-13T22:51:18.562Z,18.60
2022-09-13T22:53:46.608Z,18.63
2022-09-13T22:56:15.571Z,18.66
2022-09-13T22:58:42.461Z,18.59
2022-09-13T23:01:14.582Z,18.54
2022-09-13T23:03:42.651Z,18.52
2022-09-13T23:06:11.029Z,18.29
2022-09-13T23:08:38.309Z,18.35
2022-09-13T23:11:11.716Z,18.29
2022-09-13T23:13:38.276Z,18.33
2022-09-13T23:16:06.597Z,18.36
2022-09-13T23:18:34.212Z,18.35
2022-09-13T23:21:00.660Z,18.33
2022-09-13T23:23:27.595Z,18.29
2022-09-13T23:25:54.047Z,18.31
2022-09-13T23:28:21.258Z,18.28
2022-09-13T23:30:47.672Z,18.22
2022-09-13T23:33:14.130Z,18.22
2022-09-13T23:35:40.822Z,18.22
2022-09-13T23:38:08.539Z,18.08
2022-09-13T23:40:35.980Z,18.04
2022-09-13T23:43:03.247Z,18.11
2022-09-13T23:45:29.906Z,18.15
2022-09-13T23:47:56.332Z,18.14
2022-09-13T23:50:22.797Z,18.17
2022-09-13T23:52:49.344Z,18.18
2022-09-13T23:55:17.860Z,18.18
2022-09-13T23:57:44.308Z,18.25
